Search for airport 
image banner adimage banner adimage banner ad
image banner ad

CL67 - Platform Hidalgo

Located in Santa Maria, United States

ICAO - CL67, IATA -

Data provided by Airmate  

General information

Coordinates: N34°29'42" W120°42'12"
Elevation is 162 feet MSL.
Magnetic variation is 14° East
View others Airports in California

Operational data

Special qualification required
Current time UTC:
Current local time:
Weather at : KLPC - Lompoc ( 29 km )
METAR: KLPC 211156Z AUTO 00000KT 10SM OVC008 13/13 A2995 RMK AO2 SLP144 T01330128 10144 20133 51005
View NOTAMs / SUP AIP / TFR affecting this airport [VIEW]
Communications frequencies: [VIEW]

Runways:

Airport contact information

Address: Santa Maria United States

Satellite view of CL67